createdAt,value
2023-02-11T00:01:38.206Z,99042.78
2023-02-11T00:06:35.819Z,99056.41
2023-02-11T00:11:30.859Z,99055.47
2023-02-11T00:16:24.729Z,99046.97
2023-02-11T00:21:21.150Z,99042.66
2023-02-11T00:26:21.394Z,99041.63
2023-02-11T00:31:16.353Z,99042.50
2023-02-11T00:36:15.233Z,99028.88
2023-02-11T00:41:10.599Z,99028.97
2023-02-11T00:46:08.820Z,99033.13
2023-02-11T00:51:04.192Z,99016.13
2023-02-11T00:55:57.732Z,99022.09
2023-02-11T01:00:51.364Z,99011.81
2023-02-11T01:05:46.423Z,99008.41
2023-02-11T01:10:44.069Z,99008.25
2023-02-11T01:15:37.810Z,99004.78
2023-02-11T01:20:31.341Z,98998.56
2023-02-11T01:25:30.948Z,98988.47
2023-02-11T01:30:28.351Z,98989.41
2023-02-11T01:35:21.809Z,98982.59
2023-02-11T01:40:27.119Z,98970.66
2023-02-11T01:45:58.921Z,98994.47
2023-02-11T01:50:58.455Z,98980.03
2023-02-11T01:56:12.706Z,98996.78
2023-02-11T02:01:29.514Z,98995.94
2023-02-11T02:06:43.653Z,98983.84
2023-02-11T02:11:45.150Z,98980.56
2023-02-11T02:16:51.949Z,98975.63
2023-02-11T02:22:37.173Z,98974.63
2023-02-11T02:27:54.883Z,98974.63
2023-02-11T02:33:22.363Z,98977.19
2023-02-11T02:38:31.079Z,98971.81
2023-02-11T02:43:38.582Z,98970.13
2023-02-11T02:48:36.612Z,98970.16
2023-02-11T02:53:48.719Z,98969.44
2023-02-11T02:59:32.780Z,98942.22
2023-02-11T03:04:46.007Z,98956.81
2023-02-11T03:09:53.368Z,98951.59
2023-02-11T03:15:09.847Z,98938.66
2023-02-11T03:20:14.494Z,98930.72
2023-02-11T03:25:17.386Z,98930.66
2023-02-11T03:30:19.148Z,98931.69
2023-02-11T03:35:30.821Z,98936.03
2023-02-11T03:40:33.411Z,98919.88
2023-02-11T03:45:37.964Z,98918.22
2023-02-11T03:50:51.694Z,98913.06
2023-02-11T04:01:42.793Z,98910.09
2023-02-11T04:06:43.633Z,98896.47
2023-02-11T04:11:43.095Z,98901.75
2023-02-11T04:16:53.949Z,98908.69
2023-02-11T04:22:07.759Z,98907.00
2023-02-11T04:27:14.968Z,98904.50
2023-02-11T04:32:49.379Z,98909.63
2023-02-11T04:37:55.549Z,98913.78
2023-02-11T04:43:08.875Z,98923.66
2023-02-11T04:48:06.670Z,98925.56
2023-02-11T04:53:04.549Z,98934.97
2023-02-11T04:58:18.946Z,98937.53
2023-02-11T05:03:27.253Z,98943.38
2023-02-11T05:08:31.923Z,98940.06
2023-02-11T05:13:40.234Z,98949.53
2023-02-11T05:18:54.107Z,98958.13
2023-02-11T05:44:14.707Z,98973.31
2023-02-11T05:50:21.421Z,98969.03
2023-02-11T06:01:52.472Z,98980.91
2023-02-11T06:07:08.246Z,98975.13
2023-02-11T06:12:16.489Z,98972.00
2023-02-11T06:18:05.621Z,98965.13
2023-02-11T06:23:33.141Z,98949.66
2023-02-11T06:28:52.233Z,98946.94
2023-02-11T06:34:05.641Z,98947.03
2023-02-11T06:45:24.563Z,98936.81
2023-02-11T06:51:06.446Z,98908.53
2023-02-11T07:02:44.691Z,98896.59
2023-02-11T07:08:29.262Z,98880.31
2023-02-11T07:14:27.240Z,98878.50
2023-02-11T07:20:26.435Z,98897.97
2023-02-11T07:31:31.865Z,98912.09
2023-02-11T07:36:53.777Z,98909.63
2023-02-11T07:42:21.261Z,98904.59
2023-02-11T07:47:28.386Z,98882.44
2023-02-11T07:52:50.722Z,98872.16
2023-02-11T07:58:43.220Z,98919.16
2023-02-11T08:09:58.703Z,98946.81
2023-02-11T08:20:21.222Z,98955.59
2023-02-11T08:25:27.622Z,98955.63
2023-02-11T08:30:44.477Z,98959.06
2023-02-11T08:36:04.243Z,98951.38
2023-02-11T08:41:16.132Z,98954.88
2023-02-11T08:46:21.642Z,98950.56
2023-02-11T08:56:58.524Z,98930.84
2023-02-11T09:02:02.510Z,98929.13
2023-02-11T09:06:59.597Z,98937.75
2023-02-11T09:12:03.947Z,98924.84
2023-02-11T09:16:59.352Z,98911.97
2023-02-11T09:21:57.578Z,98899.06
2023-02-11T09:26:52.836Z,98874.09
2023-02-11T09:31:53.302Z,98885.31
2023-02-11T09:36:50.728Z,98870.69
2023-02-11T09:42:18.857Z,98859.50
2023-02-11T09:47:28.532Z,98873.19
2023-02-11T09:52:40.189Z,98879.19
2023-02-11T09:57:37.253Z,98902.38
2023-02-11T10:03:35.715Z,98904.94
2023-02-11T10:08:45.275Z,98902.31
2023-02-11T10:13:52.467Z,98909.16
2023-02-11T10:19:18.212Z,98915.94
2023-02-11T10:24:17.162Z,98909.06
2023-02-11T10:29:46.130Z,98920.22
2023-02-11T10:34:49.461Z,98905.53
2023-02-11T10:39:44.684Z,98906.34
2023-02-11T10:44:42.987Z,98906.41
2023-02-11T10:49:41.137Z,98896.97
2023-02-11T10:54:34.743Z,98887.53
2023-02-11T10:59:34.444Z,98884.88
2023-02-11T11:04:40.951Z,98889.06
2023-02-11T11:10:29.289Z,98903.78
2023-02-11T11:15:33.588Z,98904.59
2023-02-11T11:20:58.898Z,98897.59
2023-02-11T11:26:33.760Z,98886.34
2023-02-11T12:08:05.011Z,98876.22
2023-02-11T12:13:12.640Z,98866.47
2023-02-11T12:18:39.403Z,98853.25
2023-02-11T12:24:01.441Z,98857.47
2023-02-11T12:29:14.981Z,98856.41
2023-02-11T12:34:45.778Z,98854.44
2023-02-11T12:39:48.749Z,98850.66
2023-02-11T12:45:15.130Z,98849.53
2023-02-11T13:05:38.703Z,98818.03
2023-02-11T13:15:38.405Z,98808.94
2023-02-11T13:20:46.688Z,98809.50
2023-02-11T13:25:50.229Z,98801.06
2023-02-11T13:30:47.684Z,98792.31
2023-02-11T13:56:28.775Z,98749.44
2023-02-11T14:07:04.078Z,98744.03
2023-02-11T14:12:36.518Z,98744.41
2023-02-11T14:17:33.106Z,98740.19
2023-02-11T14:22:31.952Z,98742.88
2023-02-11T14:27:43.867Z,98738.50
2023-02-11T14:53:02.625Z,98745.03
2023-02-11T14:58:08.964Z,98752.97
2023-02-11T15:03:02.393Z,98755.56
2023-02-11T15:08:00.462Z,98750.03
2023-02-11T16:09:35.365Z,98763.81
2023-02-11T16:14:39.377Z,98763.78
2023-02-11T16:19:36.482Z,98760.28
2023-02-11T16:24:35.404Z,98764.66
2023-02-11T16:49:59.884Z,98751.88
2023-02-11T17:51:41.150Z,98788.66
2023-02-11T17:56:37.660Z,98794.75
2023-02-11T18:01:34.872Z,98796.56
2023-02-11T18:06:29.273Z,98806.97
2023-02-11T18:11:25.367Z,98810.41
2023-02-11T18:16:24.628Z,98811.34
2023-02-11T18:21:22.348Z,98820.91
2023-02-11T18:26:18.760Z,98811.50
2023-02-11T19:01:57.712Z,98852.28
2023-02-11T19:12:01.357Z,98860.84
2023-02-11T19:17:11.911Z,98866.00
2023-02-11T19:22:15.623Z,98864.34
2023-02-11T19:27:49.212Z,98866.94
2023-02-11T19:53:12.126Z,98861.91
2023-02-11T19:58:05.512Z,98858.47
2023-02-11T20:02:58.950Z,98871.34
2023-02-11T20:07:52.410Z,98884.28
2023-02-11T20:48:37.481Z,98876.69
2023-02-11T21:54:54.665Z,98892.22
2023-02-11T22:10:03.859Z,98887.03
